Time;durP1;ratioP1;P1;durP2;ratioP2;P2;SDS_P1;SDS_P2;PMS_P1;PMS_P2;Temp;Humidity;BMP_temperature;BMP_pressure;BME280_temperature;BME280_humidity;BME280_pressure;Samples;Min_cycle;Max_cycle;Signal;HPM_P1;HPM_P2
2021/04/14 00:00:33;;;;;;;10.60;5.00;;;5.20;82.60;;;;;;4991798;28;20026;-86
2021/04/14 00:03:01;;;;;;;8.43;4.63;;;5.20;83.40;;;;;;4991727;28;20026;-86
2021/04/14 00:05:32;;;;;;;7.85;4.78;;;5.20;84.20;;;;;;4992058;28;20435;-86
2021/04/14 00:07:57;;;;;;;7.32;5.07;;;5.20;83.30;;;;;;4991078;28;20069;-86
2021/04/14 00:10:27;;;;;;;9.57;5.07;;;5.20;84.00;;;;;;4975579;28;20076;-86
2021/04/14 00:12:53;;;;;;;9.52;4.95;;;5.20;84.10;;;;;;4992163;28;20026;-86
2021/04/14 00:15:23;;;;;;;6.32;4.57;;;5.20;84.70;;;;;;4985358;28;20042;-86
2021/04/14 00:17:48;;;;;;;8.00;4.60;;;5.20;85.50;;;;;;4992408;28;20037;-86
2021/04/14 00:20:15;;;;;;;8.93;5.13;;;5.20;85.20;;;;;;4992631;28;20052;-86
2021/04/14 00:22:41;;;;;;;7.55;5.10;;;5.30;85.40;;;;;;4991782;28;20046;-86
2021/04/14 00:25:08;;;;;;;8.60;5.25;;;5.30;85.20;;;;;;4995085;28;20026;-84
2021/04/14 00:27:38;;;;;;;8.05;4.90;;;5.30;85.40;;;;;;4978221;28;20037;-84
2021/04/14 00:30:06;;;;;;;7.22;5.10;;;5.30;85.00;;;;;;5002333;28;20046;-84
2021/04/14 00:32:32;;;;;;;8.75;5.28;;;5.30;86.10;;;;;;4993381;28;20058;-86
2021/04/14 00:34:57;;;;;;;8.52;4.80;;;5.30;85.60;;;;;;4975506;28;20066;-86
2021/04/14 00:37:23;;;;;;;8.73;4.82;;;5.30;85.40;;;;;;4982940;28;20030;-87
2021/04/14 00:39:48;;;;;;;8.35;5.45;;;5.30;85.30;;;;;;4981903;28;20061;-86
2021/04/14 00:42:14;;;;;;;6.93;4.78;;;5.30;85.50;;;;;;4945742;28;20055;-86
2021/04/14 00:44:40;;;;;;;7.85;5.38;;;5.30;85.80;;;;;;4991050;28;20037;-86
2021/04/14 00:47:06;;;;;;;9.73;5.68;;;5.30;86.50;;;;;;4961654;28;20527;-86
2021/04/14 00:49:32;;;;;;;9.35;5.50;;;5.30;86.90;;;;;;4959147;28;20034;-86
2021/04/14 00:51:57;;;;;;;7.88;5.05;;;5.30;87.10;;;;;;4958891;28;20030;-86
2021/04/14 00:54:23;;;;;;;7.55;5.15;;;5.40;86.40;;;;;;4991316;28;20045;-86
2021/04/14 00:56:49;;;;;;;9.13;5.25;;;5.30;86.40;;;;;;4959367;28;20026;-86
2021/04/14 00:59:14;;;;;;;8.35;5.10;;;5.30;86.10;;;;;;4975208;28;20033;-85
2021/04/14 01:01:40;;;;;;;7.55;5.38;;;5.30;86.40;;;;;;4974900;28;20034;-86
2021/04/14 01:04:06;;;;;;;8.32;5.00;;;5.40;86.20;;;;;;4994003;28;20038;-86
2021/04/14 01:06:34;;;;;;;8.20;5.07;;;5.30;86.30;;;;;;4985402;28;20029;-86
2021/04/14 01:09:00;;;;;;;9.20;5.68;;;5.30;86.70;;;;;;4973055;28;20066;-85
2021/04/14 01:11:27;;;;;;;8.15;5.22;;;5.30;86.30;;;;;;4959088;28;20061;-86
2021/04/14 01:13:53;;;;;;;8.27;5.05;;;5.30;86.60;;;;;;4974390;28;20026;-85
2021/04/14 01:16:19;;;;;;;7.55;4.97;;;5.30;86.40;;;;;;4990799;28;20017;-86
2021/04/14 01:18:45;;;;;;;9.38;5.47;;;5.30;86.40;;;;;;4992273;28;20034;-86
2021/04/14 01:21:39;;;;;;;9.13;5.88;;;5.30;87.30;;;;;;4977356;28;20031;-86
2021/04/14 01:24:17;;;;;;;8.52;5.60;;;5.30;87.20;;;;;;4991043;28;20392;-86
2021/04/14 01:26:43;;;;;;;8.38;5.03;;;5.30;87.10;;;;;;4975247;28;20502;-85
2021/04/14 01:29:10;;;;;;;8.98;5.00;;;5.30;86.70;;;;;;4991265;28;20638;-85
2021/04/14 01:31:35;;;;;;;8.60;5.32;;;5.30;86.80;;;;;;4988482;28;20027;-85
2021/04/14 01:34:09;;;;;;;9.25;5.00;;;5.30;87.00;;;;;;4991640;28;20041;-85
2021/04/14 01:36:35;;;;;;;7.78;5.00;;;5.30;87.00;;;;;;4991228;28;20550;-86
2021/04/14 01:39:01;;;;;;;7.65;4.70;;;5.30;86.80;;;;;;4998498;28;20034;-85
2021/04/14 01:41:27;;;;;;;8.55;5.28;;;5.30;87.50;;;;;;4989671;28;20084;-86
2021/04/14 01:43:53;;;;;;;6.88;4.88;;;5.30;87.20;;;;;;4993019;28;20478;-86
2021/04/14 01:46:18;;;;;;;8.95;4.90;;;5.30;87.30;;;;;;4992458;28;20026;-86
2021/04/14 01:48:44;;;;;;;15.07;5.57;;;5.30;87.20;;;;;;4972302;28;20403;-85
2021/04/14 01:51:12;;;;;;;7.78;5.00;;;5.30;87.10;;;;;;4975403;28;20035;-85
2021/04/14 01:53:37;;;;;;;8.18;4.80;;;5.30;87.20;;;;;;4971726;28;20415;-86
2021/04/14 01:56:03;;;;;;;8.20;5.63;;;5.30;87.50;;;;;;4975107;28;20031;-86
2021/04/14 01:58:31;;;;;;;8.50;5.00;;;5.30;87.70;;;;;;4974340;28;20022;-86
2021/04/14 02:00:59;;;;;;;8.38;5.32;;;5.20;87.60;;;;;;4987981;28;20038;-85
2021/04/14 02:03:28;;;;;;;7.53;4.95;;;5.30;88.10;;;;;;4990906;28;20427;-86
2021/04/14 02:05:54;;;;;;;7.82;5.00;;;5.30;88.60;;;;;;4991601;28;20093;-85
2021/04/14 02:08:20;;;;;;;8.27;5.18;;;5.20;88.20;;;;;;4990592;28;20041;-84
2021/04/14 02:10:46;;;;;;;9.13;5.32;;;5.30;87.90;;;;;;4991798;28;20106;-85
2021/04/14 02:13:23;;;;;;;8.43;4.60;;;5.20;88.20;;;;;;4974680;28;20027;-85
2021/04/14 02:15:50;;;;;;;6.75;4.70;;;5.20;88.40;;;;;;4992006;28;20031;-85
2021/04/14 02:18:16;;;;;;;7.57;5.07;;;5.20;88.30;;;;;;4989718;28;20034;-85
2021/04/14 02:20:44;;;;;;;9.13;5.50;;;5.20;88.30;;;;;;4989667;28;20029;-85
2021/04/14 02:23:14;;;;;;;7.55;5.10;;;5.20;88.80;;;;;;4989742;28;20054;-85
2021/04/14 02:25:42;;;;;;;8.05;5.57;;;5.20;88.80;;;;;;4992402;28;20031;-85
2021/04/14 02:28:08;;;;;;;8.32;5.45;;;5.20;88.60;;;;;;4996453;28;20030;-85
2021/04/14 02:30:34;;;;;;;9.65;5.55;;;5.10;88.40;;;;;;4985604;28;20162;-85
2021/04/14 02:32:59;;;;;;;9.20;6.15;;;5.10;88.90;;;;;;4990249;28;20498;-86
2021/04/14 02:35:26;;;;;;;10.60;5.82;;;5.00;89.50;;;;;;5000971;28;20392;-86
2021/04/14 02:37:55;;;;;;;8.43;5.85;;;5.00;89.50;;;;;;4988849;28;20101;-85
2021/04/14 02:40:21;;;;;;;7.05;4.97;;;5.00;89.90;;;;;;4994279;28;20089;-85
2021/04/14 02:42:48;;;;;;;8.23;5.40;;;5.00;90.00;;;;;;4985011;28;20031;-86
2021/04/14 02:45:14;;;;;;;7.97;5.90;;;4.90;90.10;;;;;;5005646;28;20027;-86
2021/04/14 02:47:40;;;;;;;9.25;5.95;;;4.90;90.20;;;;;;4994125;28;20050;-85
2021/04/14 02:50:09;;;;;;;8.50;5.85;;;4.90;90.20;;;;;;4961642;28;20475;-86
2021/04/14 02:52:34;;;;;;;9.35;6.47;;;4.90;90.20;;;;;;4978251;28;20022;-86
2021/04/14 02:55:00;;;;;;;9.63;5.80;;;4.90;90.10;;;;;;4993955;28;20554;-86
2021/04/14 02:57:26;;;;;;;9.95;6.22;;;4.90;90.30;;;;;;4999287;28;20474;-85
2021/04/14 02:59:53;;;;;;;9.90;6.32;;;4.90;90.40;;;;;;5003844;28;20431;-86
2021/04/14 03:02:21;;;;;;;9.48;6.15;;;4.90;90.40;;;;;;4975677;28;20034;-85
2021/04/14 03:04:46;;;;;;;8.73;5.90;;;4.90;90.20;;;;;;4993597;28;20074;-86
2021/04/14 03:07:12;;;;;;;9.52;5.85;;;4.90;90.30;;;;;;4993563;28;20026;-85
2021/04/14 03:09:38;;;;;;;10.18;6.55;;;4.90;90.30;;;;;;4993481;28;20478;-85
2021/04/14 03:12:04;;;;;;;9.45;5.90;;;5.00;90.50;;;;;;4978105;28;20537;-86
2021/04/14 03:14:30;;;;;;;10.20;6.55;;;5.00;90.60;;;;;;4993232;28;20044;-86
2021/04/14 03:16:56;;;;;;;11.57;6.35;;;5.00;90.40;;;;;;4966571;28;20522;-86
2021/04/14 03:19:21;;;;;;;10.50;6.85;;;4.90;90.20;;;;;;4985587;28;20027;-86
2021/04/14 03:21:47;;;;;;;9.38;6.68;;;4.80;90.40;;;;;;4977180;28;20053;-86
2021/04/14 03:24:13;;;;;;;9.35;6.40;;;4.80;90.50;;;;;;4994602;28;20073;-86
2021/04/14 03:26:39;;;;;;;9.32;6.22;;;4.80;90.60;;;;;;4977165;28;20030;-86
2021/04/14 03:29:04;;;;;;;9.15;6.35;;;4.70;90.60;;;;;;4993829;28;20138;-86
2021/04/14 03:31:32;;;;;;;9.77;6.57;;;4.70;90.60;;;;;;4971388;28;20034;-86
2021/04/14 03:33:58;;;;;;;9.80;6.18;;;4.70;90.60;;;;;;4984885;28;20438;-86
2021/04/14 03:36:24;;;;;;;9.80;6.22;;;4.60;90.70;;;;;;4993587;28;20018;-88
2021/04/14 03:38:50;;;;;;;8.93;6.55;;;4.50;90.90;;;;;;4984350;28;20085;-86
2021/04/14 03:41:16;;;;;;;9.52;6.75;;;4.60;90.90;;;;;;4970290;28;20468;-86
2021/04/14 03:43:42;;;;;;;11.27;7.20;;;4.50;90.80;;;;;;4961245;28;20030;-86
2021/04/14 03:46:07;;;;;;;10.27;7.55;;;4.50;91.00;;;;;;4980972;28;20059;-86
2021/04/14 03:48:33;;;;;;;19.65;7.70;;;4.50;90.80;;;;;;4990085;28;20594;-87
2021/04/14 03:50:59;;;;;;;11.60;7.88;;;4.50;90.90;;;;;;4982381;28;20080;-86
2021/04/14 03:53:29;;;;;;;10.82;7.10;;;4.50;90.90;;;;;;4987250;28;20468;-86
2021/04/14 03:56:00;;;;;;;9.48;6.90;;;4.50;91.10;;;;;;4982924;28;20042;-86
2021/04/14 03:58:26;;;;;;;;;;;4.40;91.20;;;;;;5007157;28;20459;-86
2021/04/14 04:00:54;;;;;;;10.05;6.55;;;4.40;91.20;;;;;;4994183;28;19917;-86
2021/04/14 04:03:21;;;;;;;10.38;7.47;;;4.40;91.10;;;;;;4992459;28;20058;-86
2021/04/14 04:05:47;;;;;;;11.32;7.05;;;4.40;91.20;;;;;;4992553;28;20079;-86
2021/04/14 04:08:13;;;;;;;9.57;7.15;;;4.40;91.20;;;;;;5008118;28;20027;-86
2021/04/14 04:10:41;;;;;;;9.70;6.75;;;4.40;91.20;;;;;;4979613;28;20045;-85
2021/04/14 04:13:07;;;;;;;8.90;6.32;;;4.40;91.20;;;;;;5004354;28;20035;-86
2021/04/14 04:15:36;;;;;;;12.65;7.15;;;4.40;91.00;;;;;;4985450;28;20030;-85
2021/04/14 04:18:02;;;;;;;8.88;6.53;;;4.40;91.00;;;;;;5013956;28;20037;-87
2021/04/14 04:20:29;;;;;;;10.98;6.97;;;4.40;91.20;;;;;;4977320;28;20035;-86
2021/04/14 04:22:55;;;;;;;9.52;7.07;;;4.40;90.80;;;;;;4994311;28;20039;-87
2021/04/14 04:25:20;;;;;;;11.15;7.30;;;4.30;91.00;;;;;;4990978;28;20033;-86
2021/04/14 04:27:46;;;;;;;11.68;7.30;;;4.30;91.20;;;;;;4987516;28;20128;-86
2021/04/14 04:30:12;;;;;;;9.85;7.45;;;4.30;91.10;;;;;;4980075;28;20479;-87
2021/04/14 04:32:38;;;;;;;10.52;7.50;;;4.30;91.30;;;;;;4993589;28;20042;-86
2021/04/14 04:35:05;;;;;;;13.23;7.72;;;4.30;91.20;;;;;;4977143;28;20120;-86
2021/04/14 04:37:31;;;;;;;11.40;7.13;;;4.30;91.10;;;;;;4993268;28;20521;-86
2021/04/14 04:39:57;;;;;;;10.25;7.50;;;4.30;91.20;;;;;;4997481;28;20034;-86
2021/04/14 04:42:25;;;;;;;8.90;7.00;;;4.30;91.30;;;;;;4994632;28;20025;-88
2021/04/14 04:44:51;;;;;;;11.85;7.50;;;4.30;91.30;;;;;;4969914;28;20030;-87
2021/04/14 04:47:16;;;;;;;12.27;7.70;;;4.30;91.30;;;;;;4958294;28;20056;-87
2021/04/14 04:49:42;;;;;;;15.00;7.93;;;4.30;91.30;;;;;;4970811;28;20118;-87
2021/04/14 04:52:08;;;;;;;11.77;8.07;;;4.30;91.10;;;;;;4960850;28;20042;-88
2021/04/14 04:54:34;;;;;;;12.60;8.27;;;4.40;91.00;;;;;;4993973;28;20038;-88
2021/04/14 04:57:00;;;;;;;12.32;8.50;;;4.30;91.20;;;;;;4977230;28;20938;-88
2021/04/14 04:59:26;;;;;;;10.80;8.00;;;4.30;91.40;;;;;;4993322;28;20033;-88
2021/04/14 05:01:53;;;;;;;10.77;7.90;;;4.30;91.50;;;;;;4992524;28;20022;-88
2021/04/14 05:04:21;;;;;;;14.18;7.80;;;4.40;91.40;;;;;;4992647;28;20022;-88
2021/04/14 05:06:46;;;;;;;12.25;7.88;;;4.40;91.20;;;;;;4992768;28;20049;-86
2021/04/14 05:09:12;;;;;;;9.75;6.82;;;4.40;91.10;;;;;;4958151;28;20061;-87
2021/04/14 05:11:38;;;;;;;10.30;7.68;;;4.40;91.20;;;;;;4971529;28;20069;-87
2021/04/14 05:14:04;;;;;;;12.20;8.02;;;4.40;91.40;;;;;;4977955;28;20402;-88
2021/04/14 05:16:30;;;;;;;11.98;7.78;;;4.40;91.40;;;;;;4973071;28;20046;-86
2021/04/14 05:18:55;;;;;;;9.68;7.00;;;4.30;91.40;;;;;;4983752;28;20364;-88
2021/04/14 05:21:21;;;;;;;11.73;7.97;;;4.40;91.40;;;;;;4979313;28;20023;-88
2021/04/14 05:23:48;;;;;;;11.48;7.13;;;4.40;91.40;;;;;;4976697;28;20055;-87
2021/04/14 05:26:14;;;;;;;11.35;7.60;;;4.40;91.50;;;;;;4995052;28;20084;-88
2021/04/14 05:28:42;;;;;;;12.38;7.30;;;4.40;91.50;;;;;;4993830;28;20526;-88
2021/04/14 05:31:08;;;;;;;10.90;7.43;;;4.50;91.70;;;;;;4980547;28;20399;-88
2021/04/14 05:33:34;;;;;;;11.73;7.18;;;4.50;91.70;;;;;;4988957;28;20022;-88
2021/04/14 05:36:00;;;;;;;9.68;6.90;;;4.50;91.50;;;;;;4977786;28;20042;-88
2021/04/14 05:38:27;;;;;;;10.70;6.90;;;4.40;91.60;;;;;;4997636;28;20677;-88
2021/04/14 05:40:53;;;;;;;9.40;6.57;;;4.50;91.60;;;;;;4994851;28;20023;-86
2021/04/14 05:43:26;;;;;;;9.88;6.80;;;4.60;91.70;;;;;;4974276;28;20031;-88
2021/04/14 05:46:03;;;;;;;9.75;6.50;;;4.60;91.50;;;;;;4976438;28;20061;-88
2021/04/14 05:48:29;;;;;;;10.35;6.35;;;4.60;91.50;;;;;;4993794;28;20018;-87
2021/04/14 05:50:58;;;;;;;10.68;7.03;;;4.60;91.40;;;;;;4993814;28;20029;-86
2021/04/14 05:53:25;;;;;;;8.93;6.05;;;4.60;91.50;;;;;;4995167;28;20019;-88
2021/04/14 05:55:51;;;;;;;9.52;6.60;;;4.70;91.40;;;;;;4986106;28;20121;-88
2021/04/14 05:58:17;;;;;;;12.05;6.45;;;4.70;91.80;;;;;;4974087;28;20054;-87
2021/04/14 06:00:42;;;;;;;11.55;6.32;;;4.70;91.30;;;;;;5003168;28;20041;-87
2021/04/14 06:03:08;;;;;;;9.70;6.07;;;4.70;91.20;;;;;;4990734;28;20121;-86
2021/04/14 06:05:36;;;;;;;10.18;6.63;;;4.70;91.20;;;;;;5007057;28;20057;-88
2021/04/14 06:08:03;;;;;;;10.70;6.70;;;4.80;91.20;;;;;;4978146;28;20037;-88
2021/04/14 06:10:28;;;;;;;13.85;7.38;;;4.80;91.20;;;;;;4992492;28;20030;-88
2021/04/14 06:12:54;;;;;;;10.93;6.97;;;4.80;91.20;;;;;;4987579;28;20080;-88
2021/04/14 06:15:28;;;;;;;10.95;5.85;;;4.80;91.00;;;;;;4996090;28;20042;-88
2021/04/14 06:17:54;;;;;;;8.13;5.22;;;4.80;91.20;;;;;;4996897;28;20034;-87
2021/04/14 06:20:22;;;;;;;8.98;5.47;;;4.80;91.00;;;;;;4969417;28;20022;-89
2021/04/14 06:22:52;;;;;;;10.95;6.30;;;4.90;91.00;;;;;;5009170;28;20049;-87
2021/04/14 06:25:21;;;;;;;11.70;7.20;;;4.90;91.00;;;;;;5000860;28;20033;-88
2021/04/14 06:27:58;;;;;;;10.82;6.75;;;4.90;90.90;;;;;;5003077;28;20018;-88
2021/04/14 06:30:24;;;;;;;13.25;6.47;;;4.90;91.00;;;;;;5002269;28;20022;-88
2021/04/14 06:32:50;;;;;;;11.02;6.28;;;5.00;91.10;;;;;;4997028;28;20106;-86
2021/04/14 06:35:17;;;;;;;11.80;7.00;;;5.00;91.10;;;;;;4963815;28;20133;-87
2021/04/14 06:37:43;;;;;;;10.57;6.63;;;5.00;91.20;;;;;;4980372;28;20030;-88
2021/04/14 06:43:16;;;;;;;10.43;6.95;;;5.10;91.00;;;;;;4996462;28;20030;-87
2021/04/14 06:45:50;;;;;;;11.70;6.80;;;5.10;91.10;;;;;;4995176;28;20030;-88
2021/04/14 06:48:22;;;;;;;9.70;6.43;;;5.20;91.00;;;;;;4995099;28;20105;-87
2021/04/14 06:51:09;;;;;;;15.32;6.72;;;5.30;90.90;;;;;;4996672;28;20034;-89
2021/04/14 06:53:55;;;;;;;11.60;6.35;;;5.20;90.90;;;;;;4985406;28;20058;-88
2021/04/14 06:56:22;;;;;;;9.32;5.93;;;5.30;90.80;;;;;;4997916;28;20040;-91
2021/04/14 06:59:03;;;;;;;11.85;5.93;;;5.30;90.80;;;;;;4969970;28;20034;-87
2021/04/14 07:01:48;;;;;;;10.50;6.25;;;5.40;90.80;;;;;;4985769;28;20022;-86
2021/04/14 07:04:27;;;;;;;9.23;6.03;;;5.40;90.80;;;;;;4993475;28;20022;-87
2021/04/14 07:06:53;;;;;;;9.00;5.68;;;5.50;90.70;;;;;;5000196;28;20113;-86
2021/04/14 07:09:34;;;;;;;10.50;6.68;;;5.50;90.80;;;;;;4995847;28;20030;-87
2021/04/14 07:12:01;;;;;;;11.88;7.25;;;5.60;90.80;;;;;;5000571;28;20031;-87
2021/04/14 07:14:31;;;;;;;9.88;6.50;;;5.70;90.80;;;;;;4984877;28;20043;-86
2021/04/14 07:16:57;;;;;;;11.03;6.90;;;5.70;90.80;;;;;;4981953;28;20081;-86
2021/04/14 07:19:50;;;;;;;10.43;6.22;;;5.80;90.70;;;;;;4986671;28;20026;-87
2021/04/14 07:22:18;;;;;;;10.15;6.15;;;5.80;90.50;;;;;;4996894;28;20867;-88
2021/04/14 07:24:52;;;;;;;9.25;6.18;;;5.80;90.50;;;;;;5001199;28;20033;-86
2021/04/14 07:27:39;;;;;;;9.90;5.43;;;5.90;90.50;;;;;;4994269;28;20045;-85
2021/04/14 07:30:15;;;;;;;10.55;5.95;;;5.90;90.60;;;;;;4991566;28;20033;-87
2021/04/14 07:32:59;;;;;;;11.27;6.60;;;6.00;90.50;;;;;;4980695;28;20023;-89
2021/04/14 07:35:33;;;;;;;11.15;6.43;;;6.00;90.00;;;;;;4993086;28;20041;-86
2021/04/14 07:38:17;;;;;;;13.20;7.07;;;6.00;90.00;;;;;;4988189;28;20038;-87
2021/04/14 07:40:50;;;;;;;13.85;7.78;;;6.10;89.70;;;;;;4993872;28;20026;-87
2021/04/14 07:43:33;;;;;;;15.32;7.72;;;6.10;89.20;;;;;;4993336;28;20053;-87
2021/04/14 07:45:59;;;;;;;12.05;6.03;;;6.10;88.90;;;;;;4995252;28;20105;-87
2021/04/14 07:48:38;;;;;;;10.93;6.57;;;6.20;88.80;;;;;;4995669;28;20073;-87
2021/04/14 07:51:09;;;;;;;11.93;7.25;;;6.20;88.70;;;;;;4994884;28;20032;-86
2021/04/14 07:53:39;;;;;;;;;;;6.20;88.80;;;;;;4995086;28;20114;-86
2021/04/14 07:56:23;;;;;;;12.20;6.07;;;6.30;88.90;;;;;;4988911;28;19914;-86
2021/04/14 07:59:07;;;;;;;12.20;6.38;;;6.30;88.50;;;;;;4982696;28;20026;-86
2021/04/14 08:01:35;;;;;;;13.52;6.57;;;6.40;89.10;;;;;;4993900;28;20077;-87
2021/04/14 08:04:15;;;;;;;10.15;6.53;;;6.40;88.30;;;;;;4986892;28;20033;-86
2021/04/14 08:06:41;;;;;;;11.45;7.10;;;6.50;87.80;;;;;;4990375;28;20109;-87
2021/04/14 08:09:17;;;;;;;13.43;7.68;;;6.50;88.40;;;;;;4994220;28;20448;-87
2021/04/14 08:11:43;;;;;;;11.35;6.57;;;6.50;88.00;;;;;;4993316;28;20114;-85
2021/04/14 08:14:09;;;;;;;13.10;6.97;;;6.50;88.40;;;;;;4993215;28;20105;-86
2021/04/14 08:16:40;;;;;;;11.85;7.68;;;6.60;86.90;;;;;;4981320;28;20035;-87
2021/04/14 08:19:27;;;;;;;;;;;6.60;86.70;;;;;;4993475;28;20022;-86
2021/04/14 08:22:05;;;;;;;12.63;7.40;;;6.60;86.70;;;;;;4993476;28;19917;-88
2021/04/14 08:24:41;;;;;;;10.88;7.13;;;6.60;86.10;;;;;;4979034;28;20499;-87
2021/04/14 08:27:34;;;;;;;10.07;6.53;;;6.60;85.80;;;;;;4993845;28;20030;-86
2021/04/14 08:30:04;;;;;;;12.20;7.22;;;6.70;86.00;;;;;;4993442;28;20033;-87
2021/04/14 08:32:45;;;;;;;12.20;6.47;;;6.70;86.10;;;;;;4993836;28;20073;-87
2021/04/14 08:35:25;;;;;;;11.20;6.88;;;6.80;86.50;;;;;;4992905;28;20113;-87
2021/04/14 08:38:20;;;;;;;13.90;7.57;;;7.00;86.30;;;;;;4992829;28;20117;-86
2021/04/14 08:40:48;;;;;;;11.68;7.22;;;7.10;85.40;;;;;;4980935;28;20046;-87
2021/04/14 08:43:26;;;;;;;12.68;7.43;;;7.10;84.30;;;;;;4993218;28;20129;-86
2021/04/14 08:45:52;;;;;;;11.60;7.45;;;7.20;83.10;;;;;;4993948;28;20031;-89
2021/04/14 08:48:28;;;;;;;11.15;6.97;;;7.20;82.70;;;;;;4992894;28;20095;-86
2021/04/14 08:50:57;;;;;;;12.88;7.93;;;7.20;82.50;;;;;;4992782;28;20042;-85
2021/04/14 08:53:33;;;;;;;12.27;6.75;;;7.20;82.10;;;;;;4994006;28;20022;-85
2021/04/14 08:55:59;;;;;;;9.95;6.18;;;7.20;82.20;;;;;;4992411;28;20046;-87
2021/04/14 08:58:25;;;;;;;11.25;7.25;;;7.30;82.70;;;;;;4976600;28;20054;-86
2021/04/14 09:00:50;;;;;;;11.25;7.03;;;7.40;82.40;;;;;;4973804;28;20081;-87
2021/04/14 09:03:21;;;;;;;11.93;7.30;;;7.40;82.20;;;;;;4991627;28;20169;-87
2021/04/14 09:05:47;;;;;;;12.40;7.90;;;7.50;81.70;;;;;;4984712;28;20067;-87
2021/04/14 09:08:17;;;;;;;11.15;7.07;;;7.50;82.30;;;;;;4970059;28;20073;-87
2021/04/14 09:10:57;;;;;;;12.43;7.93;;;7.60;82.30;;;;;;4993575;28;20026;-88
2021/04/14 09:13:35;;;;;;;12.30;8.27;;;7.70;81.70;;;;;;4991451;28;20537;-87
2021/04/14 09:16:03;;;;;;;12.55;7.95;;;7.70;81.40;;;;;;4992553;28;20041;-87
2021/04/14 09:18:45;;;;;;;13.85;7.25;;;7.80;80.60;;;;;;4978554;28;20045;-92
2021/04/14 09:21:17;;;;;;;13.15;7.32;;;7.80;80.60;;;;;;4989678;28;20026;-85
2021/04/14 09:24:07;;;;;;;11.80;8.18;;;7.90;80.40;;;;;;4990851;28;20058;-88
2021/04/14 09:26:40;;;;;;;15.05;9.77;;;8.00;79.60;;;;;;4995423;28;20019;-96
2021/04/14 09:29:38;;;;;;;15.18;9.32;;;8.00;79.90;;;;;;4985615;28;20023;-89
2021/04/14 09:32:12;;;;;;;15.82;9.77;;;8.10;80.50;;;;;;4961113;28;20026;-93
2021/04/14 09:34:49;;;;;;;15.48;10.07;;;8.10;79.90;;;;;;4997501;28;20053;-95
2021/04/14 09:37:17;;;;;;;14.27;9.30;;;8.20;81.50;;;;;;5002227;28;20022;-93
2021/04/14 09:39:46;;;;;;;14.20;9.07;;;8.30;80.70;;;;;;5002467;28;20027;-94
2021/04/14 09:42:22;;;;;;;13.05;9.18;;;8.30;77.60;;;;;;4995460;28;20521;-87
2021/04/14 09:44:54;;;;;;;12.27;8.65;;;8.30;78.30;;;;;;4996229;28;20035;-87
2021/04/14 09:47:25;;;;;;;14.35;8.70;;;8.30;78.50;;;;;;4991191;28;20062;-87
2021/04/14 09:49:53;;;;;;;15.05;8.88;;;8.40;79.10;;;;;;4988026;28;20030;-87
2021/04/14 09:52:47;;;;;;;14.80;9.43;;;8.40;78.60;;;;;;4979587;28;20084;-88
2021/04/14 09:55:15;;;;;;;12.50;7.95;;;8.50;77.60;;;;;;4996025;28;20054;-87
2021/04/14 09:57:45;;;;;;;15.80;9.00;;;8.50;78.60;;;;;;4998864;28;20062;-93
2021/04/14 10:00:28;;;;;;;13.05;8.32;;;8.50;77.40;;;;;;4995591;28;20137;-87
2021/04/14 10:03:07;;;;;;;13.48;8.63;;;8.50;78.20;;;;;;4988762;28;20105;-87
2021/04/14 10:05:33;;;;;;;12.30;7.65;;;8.50;78.00;;;;;;5015793;28;20026;-86
2021/04/14 10:08:02;;;;;;;10.90;7.68;;;8.50;78.60;;;;;;5016097;28;20025;-86
2021/04/14 10:10:28;;;;;;;13.13;7.82;;;8.50;79.20;;;;;;4990059;28;20022;-86
2021/04/14 10:12:56;;;;;;;12.13;7.68;;;8.50;78.70;;;;;;4999708;28;20025;-86
2021/04/14 10:15:34;;;;;;;13.25;7.75;;;8.50;78.30;;;;;;4976378;28;20027;-87
2021/04/14 10:18:04;;;;;;;13.30;8.77;;;8.60;78.90;;;;;;4997551;28;20026;-87
2021/04/14 10:20:33;;;;;;;14.60;7.93;;;8.60;80.10;;;;;;4995323;28;20026;-87
2021/04/14 10:22:59;;;;;;;11.35;7.95;;;8.60;81.50;;;;;;4976403;28;20301;-88
2021/04/14 10:25:41;;;;;;;11.85;8.18;;;8.60;79.80;;;;;;4995109;28;20037;-87
2021/04/14 10:28:10;;;;;;;13.32;8.20;;;8.50;81.20;;;;;;4995317;28;20360;-88
2021/04/14 10:30:39;;;;;;;14.13;9.20;;;8.50;82.30;;;;;;4983275;28;20022;-88
2021/04/14 10:33:17;;;;;;;16.17;9.48;;;8.50;84.20;;;;;;4995398;28;20022;-89
2021/04/14 10:35:44;;;;;;;14.48;9.38;;;8.50;84.30;;;;;;4984020;28;20147;-89
2021/04/14 10:38:09;;;;;;;13.35;9.20;;;8.50;82.90;;;;;;4978848;28;20034;-88
2021/04/14 10:40:38;;;;;;;11.68;8.13;;;8.50;82.40;;;;;;4959775;28;20023;-88
2021/04/14 10:43:18;;;;;;;10.15;7.35;;;8.50;81.70;;;;;;4987599;28;20022;-88
2021/04/14 10:45:59;;;;;;;10.13;7.07;;;8.40;81.30;;;;;;4996001;28;20396;-86
2021/04/14 10:48:26;;;;;;;9.07;6.10;;;8.40;79.40;;;;;;4994133;28;20026;-86
2021/04/14 10:51:22;;;;;;;9.82;5.75;;;8.30;78.40;;;;;;4995017;28;20030;-86
2021/04/14 10:53:50;;;;;;;8.27;5.13;;;8.20;78.00;;;;;;4994859;28;20034;-85
2021/04/14 10:56:26;;;;;;;9.48;6.18;;;8.20;78.20;;;;;;4978311;28;20061;-87
2021/04/14 10:58:52;;;;;;;9.18;6.20;;;8.10;79.20;;;;;;4995930;28;20027;-85
2021/04/14 11:01:30;;;;;;;8.93;6.20;;;8.00;80.20;;;;;;4978181;28;20394;-85
2021/04/14 11:04:29;;;;;;;8.45;6.13;;;8.00;80.80;;;;;;4980909;28;20031;-85
2021/04/14 11:07:06;;;;;;;8.68;6.32;;;8.00;81.70;;;;;;4995813;28;20027;-87
2021/04/14 11:09:35;;;;;;;8.77;6.03;;;8.10;81.20;;;;;;4994920;28;20029;-86
2021/04/14 11:12:06;;;;;;;16.45;6.70;;;8.10;79.50;;;;;;4994523;28;20031;-86
2021/04/14 11:14:35;;;;;;;10.40;6.57;;;8.10;79.00;;;;;;4994127;28;20031;-86
2021/04/14 11:17:01;;;;;;;7.90;5.53;;;8.10;81.30;;;;;;4994277;28;20369;-86
2021/04/14 11:19:27;;;;;;;8.48;6.10;;;8.20;82.30;;;;;;4976959;28;20042;-86
2021/04/14 11:22:02;;;;;;;8.10;5.20;;;8.20;80.20;;;;;;4974907;28;20038;-86
2021/04/14 11:24:28;;;;;;;7.60;4.95;;;8.20;78.20;;;;;;4993526;28;20061;-85
2021/04/14 11:26:59;;;;;;;8.18;5.30;;;8.20;79.80;;;;;;4961925;28;20026;-86
2021/04/14 11:29:29;;;;;;;;;;;8.20;76.90;;;;;;4995222;28;20148;-85
2021/04/14 11:31:58;;;;;;;7.55;4.70;;;8.20;77.80;;;;;;4995194;28;19905;-85
2021/04/14 11:34:27;;;;;;;7.90;5.07;;;8.20;78.40;;;;;;4981672;28;20030;-85
2021/04/14 11:37:25;;;;;;;6.63;4.63;;;8.10;78.40;;;;;;4982686;28;20061;-90
2021/04/14 11:39:55;;;;;;;8.65;5.32;;;8.20;77.70;;;;;;4974721;28;20436;-85
2021/04/14 11:42:24;;;;;;;10.18;4.90;;;8.10;76.70;;;;;;4987443;28;20030;-86
2021/04/14 11:44:54;;;;;;;7.68;4.90;;;8.20;75.90;;;;;;4980293;28;20153;-86
2021/04/14 11:47:32;;;;;;;8.13;4.95;;;8.20;76.50;;;;;;4995976;28;20030;-89
2021/04/14 11:50:16;;;;;;;7.72;5.03;;;8.20;75.90;;;;;;4977764;28;20566;-86
2021/04/14 11:52:57;;;;;;;9.13;5.30;;;8.30;75.00;;;;;;4998744;28;20156;-86
2021/04/14 11:55:25;;;;;;;8.80;5.07;;;8.30;74.80;;;;;;4988778;28;20031;-86
2021/04/14 11:58:03;;;;;;;10.43;5.20;;;8.40;74.60;;;;;;5000351;28;20065;-86
2021/04/14 12:00:38;;;;;;;9.43;5.55;;;8.40;75.00;;;;;;4993447;28;20519;-85
2021/04/14 12:03:19;;;;;;;9.82;6.03;;;8.50;75.10;;;;;;4993434;28;20018;-87
2021/04/14 12:05:50;;;;;;;9.90;5.68;;;8.60;73.90;;;;;;4991684;28;20030;-87
2021/04/14 12:08:15;;;;;;;9.25;5.65;;;8.70;74.30;;;;;;4983911;28;20058;-87
2021/04/14 12:10:41;;;;;;;12.18;6.35;;;8.80;74.60;;;;;;4957261;28;20023;-91
2021/04/14 12:13:07;;;;;;;9.63;5.78;;;8.90;72.40;;;;;;4971236;28;20030;-88
2021/04/14 12:15:33;;;;;;;8.23;4.93;;;9.00;72.70;;;;;;4973824;28;20050;-87
2021/04/14 12:17:58;;;;;;;8.10;5.72;;;9.20;73.50;;;;;;4976430;28;20426;-86
2021/04/14 12:20:24;;;;;;;10.60;5.68;;;9.30;72.10;;;;;;4976323;28;20031;-86
2021/04/14 12:22:51;;;;;;;8.98;5.97;;;9.40;71.30;;;;;;4976201;28;20022;-85
2021/04/14 12:25:16;;;;;;;7.35;4.95;;;9.60;71.60;;;;;;4992466;28;20030;-87
2021/04/14 12:27:42;;;;;;;10.60;5.32;;;9.70;70.20;;;;;;4992628;28;20035;-87
2021/04/14 12:30:08;;;;;;;9.15;4.97;;;9.80;70.00;;;;;;4977510;28;20471;-86
2021/04/14 12:32:34;;;;;;;9.80;5.07;;;10.00;67.10;;;;;;4964088;28;20138;-87
2021/04/14 12:35:00;;;;;;;10.00;5.07;;;10.10;67.00;;;;;;4989997;28;20487;-86
2021/04/14 12:37:26;;;;;;;8.07;5.32;;;10.30;68.90;;;;;;4993664;28;20105;-86
2021/04/14 12:39:52;;;;;;;9.13;5.07;;;10.40;66.70;;;;;;4993637;28;20029;-86
2021/04/14 12:42:17;;;;;;;8.27;4.90;;;10.60;66.60;;;;;;4966099;28;20386;-87
2021/04/14 12:44:43;;;;;;;7.47;4.78;;;10.80;66.90;;;;;;4991883;28;20037;-86
2021/04/14 12:47:18;;;;;;;7.38;4.70;;;11.00;67.40;;;;;;4956568;28;20022;-87
2021/04/14 12:49:44;;;;;;;8.68;4.55;;;11.20;67.80;;;;;;4979170;28;20054;-87
2021/04/14 12:52:33;;;;;;;7.45;4.90;;;11.40;67.60;;;;;;4973095;28;20065;-87
2021/04/14 12:54:59;;;;;;;8.27;4.97;;;11.60;67.00;;;;;;4992155;28;20491;-87
2021/04/14 12:57:27;;;;;;;7.68;5.05;;;11.70;66.40;;;;;;4972592;28;20027;-88
2021/04/14 13:00:06;;;;;;;7.82;4.40;;;11.70;66.00;;;;;;4970735;28;20049;-88
2021/04/14 13:02:44;;;;;;;6.18;4.30;;;11.70;65.30;;;;;;4991540;28;20027;-86
2021/04/14 13:05:47;;;;;;;6.68;4.38;;;11.70;62.50;;;;;;4991784;28;20030;-86
2021/04/14 13:08:17;;;;;;;6.85;4.25;;;11.70;64.40;;;;;;4933687;29;20032;-87
2021/04/14 13:10:52;;;;;;;6.85;3.97;;;11.80;65.40;;;;;;4976602;28;20209;-88